sensor_id;sensor_type;location;lat;lon;timestamp;P1;durP1;ratioP1;P2;durP2;ratioP2
15067;SDS011;7633;60.024;18.770;2023-04-25T00:01:13;2.37;;;2.17;;
15067;SDS011;7633;60.024;18.770;2023-04-25T00:03:41;3.63;;;2.30;;
15067;SDS011;7633;60.024;18.770;2023-04-25T00:06:08;3.53;;;2.50;;
15067;SDS011;7633;60.024;18.770;2023-04-25T00:08:37;2.60;;;2.40;;
15067;SDS011;7633;60.024;18.770;2023-04-25T00:11:05;3.30;;;2.73;;
15067;SDS011;7633;60.024;18.770;2023-04-25T00:13:34;2.60;;;2.40;;
15067;SDS011;7633;60.024;18.770;2023-04-25T00:16:04;2.43;;;1.93;;
15067;SDS011;7633;60.024;18.770;2023-04-25T00:18:33;3.33;;;2.43;;
15067;SDS011;7633;60.024;18.770;2023-04-25T00:20:58;2.77;;;2.47;;
15067;SDS011;7633;60.024;18.770;2023-04-25T00:23:24;2.83;;;2.50;;
15067;SDS011;7633;60.024;18.770;2023-04-25T00:25:49;4.50;;;2.60;;
15067;SDS011;7633;60.024;18.770;2023-04-25T00:28:15;3.23;;;2.20;;
15067;SDS011;7633;60.024;18.770;2023-04-25T00:30:42;3.40;;;2.30;;
15067;SDS011;7633;60.024;18.770;2023-04-25T00:33:15;3.13;;;2.33;;
15067;SDS011;7633;60.024;18.770;2023-04-25T00:35:43;3.83;;;2.43;;
15067;SDS011;7633;60.024;18.770;2023-04-25T00:38:15;3.77;;;2.47;;
15067;SDS011;7633;60.024;18.770;2023-04-25T00:40:47;4.87;;;2.63;;
15067;SDS011;7633;60.024;18.770;2023-04-25T00:43:13;3.00;;;2.57;;
15067;SDS011;7633;60.024;18.770;2023-04-25T00:45:39;4.20;;;2.87;;
15067;SDS011;7633;60.024;18.770;2023-04-25T00:48:08;4.40;;;2.80;;
15067;SDS011;7633;60.024;18.770;2023-04-25T00:50:36;3.10;;;2.60;;
15067;SDS011;7633;60.024;18.770;2023-04-25T00:53:08;4.73;;;3.03;;
15067;SDS011;7633;60.024;18.770;2023-04-25T00:55:35;4.57;;;2.67;;
15067;SDS011;7633;60.024;18.770;2023-04-25T00:58:01;2.43;;;2.23;;
15067;SDS011;7633;60.024;18.770;2023-04-25T01:00:29;3.60;;;2.53;;
15067;SDS011;7633;60.024;18.770;2023-04-25T01:03:03;2.77;;;2.43;;
15067;SDS011;7633;60.024;18.770;2023-04-25T01:05:35;3.30;;;2.73;;
15067;SDS011;7633;60.024;18.770;2023-04-25T01:08:08;3.47;;;3.03;;
15067;SDS011;7633;60.024;18.770;2023-04-25T01:10:39;2.73;;;2.33;;
15067;SDS011;7633;60.024;18.770;2023-04-25T01:13:11;3.20;;;2.67;;
15067;SDS011;7633;60.024;18.770;2023-04-25T01:15:39;3.63;;;2.77;;
15067;SDS011;7633;60.024;18.770;2023-04-25T01:18:13;3.03;;;2.33;;
15067;SDS011;7633;60.024;18.770;2023-04-25T01:20:47;2.50;;;2.17;;
15067;SDS011;7633;60.024;18.770;2023-04-25T01:23:25;2.30;;;2.10;;
15067;SDS011;7633;60.024;18.770;2023-04-25T01:25:54;2.73;;;2.53;;
15067;SDS011;7633;60.024;18.770;2023-04-25T01:28:22;2.80;;;2.60;;
15067;SDS011;7633;60.024;18.770;2023-04-25T01:30:48;2.97;;;2.50;;
15067;SDS011;7633;60.024;18.770;2023-04-25T01:33:21;3.30;;;2.50;;
15067;SDS011;7633;60.024;18.770;2023-04-25T01:35:55;2.57;;;2.37;;
15067;SDS011;7633;60.024;18.770;2023-04-25T01:38:26;2.90;;;2.60;;
15067;SDS011;7633;60.024;18.770;2023-04-25T01:40:55;2.03;;;1.87;;
15067;SDS011;7633;60.024;18.770;2023-04-25T01:43:26;2.40;;;2.20;;
15067;SDS011;7633;60.024;18.770;2023-04-25T01:45:54;3.03;;;2.50;;
15067;SDS011;7633;60.024;18.770;2023-04-25T01:48:25;2.93;;;2.60;;
15067;SDS011;7633;60.024;18.770;2023-04-25T01:51:01;2.60;;;2.40;;
15067;SDS011;7633;60.024;18.770;2023-04-25T01:53:35;2.70;;;2.50;;
15067;SDS011;7633;60.024;18.770;2023-04-25T01:56:09;3.10;;;2.60;;
15067;SDS011;7633;60.024;18.770;2023-04-25T01:58:41;2.90;;;2.70;;
15067;SDS011;7633;60.024;18.770;2023-04-25T02:01:12;4.10;;;2.87;;
15067;SDS011;7633;60.024;18.770;2023-04-25T02:03:44;3.87;;;2.53;;
15067;SDS011;7633;60.024;18.770;2023-04-25T02:06:19;3.73;;;2.40;;
15067;SDS011;7633;60.024;18.770;2023-04-25T02:08:50;3.17;;;2.60;;
15067;SDS011;7633;60.024;18.770;2023-04-25T02:11:16;2.90;;;2.50;;
15067;SDS011;7633;60.024;18.770;2023-04-25T02:13:41;2.83;;;2.53;;
15067;SDS011;7633;60.024;18.770;2023-04-25T02:16:09;3.80;;;2.90;;
15067;SDS011;7633;60.024;18.770;2023-04-25T02:18:44;3.67;;;2.70;;
15067;SDS011;7633;60.024;18.770;2023-04-25T02:21:16;2.67;;;2.47;;
15067;SDS011;7633;60.024;18.770;2023-04-25T02:23:44;2.53;;;2.27;;
15067;SDS011;7633;60.024;18.770;2023-04-25T02:26:16;2.53;;;2.33;;
15067;SDS011;7633;60.024;18.770;2023-04-25T02:28:46;2.80;;;2.60;;
15067;SDS011;7633;60.024;18.770;2023-04-25T02:31:14;2.67;;;2.47;;
15067;SDS011;7633;60.024;18.770;2023-04-25T02:33:52;2.30;;;2.10;;
15067;SDS011;7633;60.024;18.770;2023-04-25T02:36:26;2.20;;;2.00;;
15067;SDS011;7633;60.024;18.770;2023-04-25T02:38:56;2.13;;;1.93;;
15067;SDS011;7633;60.024;18.770;2023-04-25T02:41:31;2.33;;;2.13;;
15067;SDS011;7633;60.024;18.770;2023-04-25T02:44:03;2.33;;;2.13;;
15067;SDS011;7633;60.024;18.770;2023-04-25T02:46:34;2.37;;;2.10;;
15067;SDS011;7633;60.024;18.770;2023-04-25T02:49:02;3.70;;;2.20;;
15067;SDS011;7633;60.024;18.770;2023-04-25T02:51:27;2.07;;;1.87;;
15067;SDS011;7633;60.024;18.770;2023-04-25T02:53:54;2.13;;;1.93;;
15067;SDS011;7633;60.024;18.770;2023-04-25T02:56:19;2.37;;;2.17;;
15067;SDS011;7633;60.024;18.770;2023-04-25T02:58:45;2.00;;;1.80;;
15067;SDS011;7633;60.024;18.770;2023-04-25T03:01:10;2.07;;;1.87;;
15067;SDS011;7633;60.024;18.770;2023-04-25T03:03:36;1.43;;;1.33;;
15067;SDS011;7633;60.024;18.770;2023-04-25T03:06:01;2.23;;;1.60;;
15067;SDS011;7633;60.024;18.770;2023-04-25T03:08:26;1.90;;;1.60;;
15067;SDS011;7633;60.024;18.770;2023-04-25T03:10:57;1.90;;;1.70;;
15067;SDS011;7633;60.024;18.770;2023-04-25T03:13:23;1.70;;;1.60;;
15067;SDS011;7633;60.024;18.770;2023-04-25T03:15:48;1.80;;;1.70;;
15067;SDS011;7633;60.024;18.770;2023-04-25T03:18:14;2.17;;;1.80;;
15067;SDS011;7633;60.024;18.770;2023-04-25T03:20:39;2.43;;;1.73;;
15067;SDS011;7633;60.024;18.770;2023-04-25T03:23:06;1.90;;;1.70;;
15067;SDS011;7633;60.024;18.770;2023-04-25T03:25:32;1.93;;;1.63;;
15067;SDS011;7633;60.024;18.770;2023-04-25T03:27:57;2.10;;;1.90;;
15067;SDS011;7633;60.024;18.770;2023-04-25T03:30:22;2.73;;;1.80;;
15067;SDS011;7633;60.024;18.770;2023-04-25T03:32:48;2.50;;;2.10;;
15067;SDS011;7633;60.024;18.770;2023-04-25T03:35:13;2.10;;;1.90;;
15067;SDS011;7633;60.024;18.770;2023-04-25T03:37:38;2.20;;;1.93;;
15067;SDS011;7633;60.024;18.770;2023-04-25T03:40:05;2.50;;;2.20;;
15067;SDS011;7633;60.024;18.770;2023-04-25T03:42:31;3.03;;;2.30;;
15067;SDS011;7633;60.024;18.770;2023-04-25T03:44:56;3.27;;;2.30;;
15067;SDS011;7633;60.024;18.770;2023-04-25T03:47:21;2.37;;;2.17;;
15067;SDS011;7633;60.024;18.770;2023-04-25T03:49:47;2.53;;;2.33;;
15067;SDS011;7633;60.024;18.770;2023-04-25T03:52:14;2.33;;;2.13;;
15067;SDS011;7633;60.024;18.770;2023-04-25T03:54:39;2.63;;;2.23;;
15067;SDS011;7633;60.024;18.770;2023-04-25T03:57:04;2.27;;;2.03;;
15067;SDS011;7633;60.024;18.770;2023-04-25T03:59:30;2.87;;;2.30;;
15067;SDS011;7633;60.024;18.770;2023-04-25T04:01:55;2.60;;;2.27;;
15067;SDS011;7633;60.024;18.770;2023-04-25T04:04:21;2.57;;;2.37;;
15067;SDS011;7633;60.024;18.770;2023-04-25T04:06:46;2.77;;;2.10;;
15067;SDS011;7633;60.024;18.770;2023-04-25T04:09:12;2.60;;;1.97;;
15067;SDS011;7633;60.024;18.770;2023-04-25T04:11:38;2.40;;;2.13;;
15067;SDS011;7633;60.024;18.770;2023-04-25T04:14:06;2.13;;;1.90;;
15067;SDS011;7633;60.024;18.770;2023-04-25T04:16:32;2.23;;;1.90;;
15067;SDS011;7633;60.024;18.770;2023-04-25T04:18:57;3.40;;;1.97;;
15067;SDS011;7633;60.024;18.770;2023-04-25T04:21:22;1.90;;;1.70;;
15067;SDS011;7633;60.024;18.770;2023-04-25T04:23:48;2.60;;;1.63;;
15067;SDS011;7633;60.024;18.770;2023-04-25T04:26:13;2.43;;;1.60;;
15067;SDS011;7633;60.024;18.770;2023-04-25T04:28:41;1.90;;;1.63;;
15067;SDS011;7633;60.024;18.770;2023-04-25T04:31:07;1.80;;;1.70;;
15067;SDS011;7633;60.024;18.770;2023-04-25T04:33:32;1.60;;;1.40;;
15067;SDS011;7633;60.024;18.770;2023-04-25T04:35:58;1.57;;;1.47;;
15067;SDS011;7633;60.024;18.770;2023-04-25T04:38:24;3.07;;;1.57;;
15067;SDS011;7633;60.024;18.770;2023-04-25T04:40:50;1.60;;;1.13;;
15067;SDS011;7633;60.024;18.770;2023-04-25T04:43:15;1.67;;;1.57;;
15067;SDS011;7633;60.024;18.770;2023-04-25T04:45:42;1.30;;;1.20;;
15067;SDS011;7633;60.024;18.770;2023-04-25T04:48:08;1.40;;;1.30;;
15067;SDS011;7633;60.024;18.770;2023-04-25T04:50:33;1.50;;;1.27;;
15067;SDS011;7633;60.024;18.770;2023-04-25T04:52:59;1.70;;;1.20;;
15067;SDS011;7633;60.024;18.770;2023-04-25T04:55:24;1.73;;;1.30;;
15067;SDS011;7633;60.024;18.770;2023-04-25T04:57:49;2.50;;;1.40;;
15067;SDS011;7633;60.024;18.770;2023-04-25T05:00:15;1.37;;;1.27;;
15067;SDS011;7633;60.024;18.770;2023-04-25T05:02:40;1.80;;;1.40;;
15067;SDS011;7633;60.024;18.770;2023-04-25T05:05:06;1.30;;;1.10;;
15067;SDS011;7633;60.024;18.770;2023-04-25T05:07:31;1.70;;;1.27;;
15067;SDS011;7633;60.024;18.770;2023-04-25T05:09:57;1.20;;;1.10;;
15067;SDS011;7633;60.024;18.770;2023-04-25T05:12:22;3.30;;;1.40;;
15067;SDS011;7633;60.024;18.770;2023-04-25T05:14:47;2.10;;;1.40;;
15067;SDS011;7633;60.024;18.770;2023-04-25T05:17:13;1.43;;;1.30;;
15067;SDS011;7633;60.024;18.770;2023-04-25T05:19:38;1.30;;;1.20;;
15067;SDS011;7633;60.024;18.770;2023-04-25T05:22:04;1.80;;;1.30;;
15067;SDS011;7633;60.024;18.770;2023-04-25T05:24:30;1.50;;;1.40;;
15067;SDS011;7633;60.024;18.770;2023-04-25T05:26:56;2.00;;;1.80;;
15067;SDS011;7633;60.024;18.770;2023-04-25T05:29:21;1.47;;;1.37;;
15067;SDS011;7633;60.024;18.770;2023-04-25T05:31:46;1.90;;;1.73;;
15067;SDS011;7633;60.024;18.770;2023-04-25T05:34:13;1.93;;;1.47;;
15067;SDS011;7633;60.024;18.770;2023-04-25T05:36:38;2.17;;;1.83;;
15067;SDS011;7633;60.024;18.770;2023-04-25T05:39:04;1.50;;;1.37;;
15067;SDS011;7633;60.024;18.770;2023-04-25T05:41:29;1.67;;;1.57;;
15067;SDS011;7633;60.024;18.770;2023-04-25T05:43:55;1.50;;;1.40;;
15067;SDS011;7633;60.024;18.770;2023-04-25T05:46:20;1.90;;;1.37;;
15067;SDS011;7633;60.024;18.770;2023-04-25T05:48:45;2.23;;;1.63;;
15067;SDS011;7633;60.024;18.770;2023-04-25T05:51:11;2.03;;;1.60;;
15067;SDS011;7633;60.024;18.770;2023-04-25T05:53:36;2.03;;;1.83;;
15067;SDS011;7633;60.024;18.770;2023-04-25T05:56:01;1.50;;;1.40;;
15067;SDS011;7633;60.024;18.770;2023-04-25T05:58:27;2.90;;;1.80;;
15067;SDS011;7633;60.024;18.770;2023-04-25T06:00:52;1.90;;;1.63;;
15067;SDS011;7633;60.024;18.770;2023-04-25T06:03:17;2.10;;;1.90;;
15067;SDS011;7633;60.024;18.770;2023-04-25T06:05:43;3.20;;;2.00;;
15067;SDS011;7633;60.024;18.770;2023-04-25T06:08:09;3.27;;;2.10;;
15067;SDS011;7633;60.024;18.770;2023-04-25T06:10:35;2.43;;;2.10;;
15067;SDS011;7633;60.024;18.770;2023-04-25T06:13:00;2.37;;;1.93;;
15067;SDS011;7633;60.024;18.770;2023-04-25T06:15:26;2.67;;;2.43;;
15067;SDS011;7633;60.024;18.770;2023-04-25T06:17:51;3.23;;;2.33;;
15067;SDS011;7633;60.024;18.770;2023-04-25T06:20:16;2.50;;;2.30;;
15067;SDS011;7633;60.024;18.770;2023-04-25T06:22:42;4.37;;;3.50;;
15067;SDS011;7633;60.024;18.770;2023-04-25T06:25:07;4.23;;;3.30;;
15067;SDS011;7633;60.024;18.770;2023-04-25T06:27:35;5.23;;;4.07;;
15067;SDS011;7633;60.024;18.770;2023-04-25T06:30:01;4.07;;;3.77;;
15067;SDS011;7633;60.024;18.770;2023-04-25T06:32:26;5.03;;;3.80;;
15067;SDS011;7633;60.024;18.770;2023-04-25T06:34:53;5.13;;;4.50;;
15067;SDS011;7633;60.024;18.770;2023-04-25T06:37:18;5.17;;;4.67;;
15067;SDS011;7633;60.024;18.770;2023-04-25T06:39:44;6.13;;;5.20;;
15067;SDS011;7633;60.024;18.770;2023-04-25T06:42:09;4.60;;;4.10;;
15067;SDS011;7633;60.024;18.770;2023-04-25T06:44:35;6.97;;;5.57;;
15067;SDS011;7633;60.024;18.770;2023-04-25T06:47:00;6.90;;;5.47;;
15067;SDS011;7633;60.024;18.770;2023-04-25T06:49:26;6.37;;;5.60;;
15067;SDS011;7633;60.024;18.770;2023-04-25T06:51:51;5.77;;;5.10;;
15067;SDS011;7633;60.024;18.770;2023-04-25T06:54:17;7.00;;;5.40;;
15067;SDS011;7633;60.024;18.770;2023-04-25T06:56:42;5.50;;;4.87;;
15067;SDS011;7633;60.024;18.770;2023-04-25T06:59:08;7.03;;;5.43;;
15067;SDS011;7633;60.024;18.770;2023-04-25T07:01:34;10.07;;;5.87;;
15067;SDS011;7633;60.024;18.770;2023-04-25T07:04:00;7.97;;;5.43;;
15067;SDS011;7633;60.024;18.770;2023-04-25T07:06:26;5.20;;;4.70;;
15067;SDS011;7633;60.024;18.770;2023-04-25T07:08:52;6.70;;;5.43;;
15067;SDS011;7633;60.024;18.770;2023-04-25T07:11:18;8.00;;;5.43;;
15067;SDS011;7633;60.024;18.770;2023-04-25T07:13:43;6.50;;;4.77;;
15067;SDS011;7633;60.024;18.770;2023-04-25T07:16:08;7.53;;;5.17;;
15067;SDS011;7633;60.024;18.770;2023-04-25T07:18:33;5.37;;;4.87;;
15067;SDS011;7633;60.024;18.770;2023-04-25T07:20:59;6.07;;;5.20;;
15067;SDS011;7633;60.024;18.770;2023-04-25T07:23:24;5.77;;;5.00;;
15067;SDS011;7633;60.024;18.770;2023-04-25T07:25:50;6.33;;;5.10;;
15067;SDS011;7633;60.024;18.770;2023-04-25T07:28:15;5.50;;;5.00;;
15067;SDS011;7633;60.024;18.770;2023-04-25T07:30:40;5.37;;;4.87;;
15067;SDS011;7633;60.024;18.770;2023-04-25T07:33:06;6.67;;;4.90;;
15067;SDS011;7633;60.024;18.770;2023-04-25T07:35:31;5.77;;;5.10;;
15067;SDS011;7633;60.024;18.770;2023-04-25T07:37:56;6.73;;;5.20;;
15067;SDS011;7633;60.024;18.770;2023-04-25T07:40:22;7.30;;;5.43;;
15067;SDS011;7633;60.024;18.770;2023-04-25T07:42:47;8.73;;;5.27;;
15067;SDS011;7633;60.024;18.770;2023-04-25T07:45:13;7.40;;;4.93;;
15067;SDS011;7633;60.024;18.770;2023-04-25T07:47:38;6.23;;;5.10;;
15067;SDS011;7633;60.024;18.770;2023-04-25T07:50:04;5.83;;;4.97;;
15067;SDS011;7633;60.024;18.770;2023-04-25T07:52:29;6.00;;;4.77;;
15067;SDS011;7633;60.024;18.770;2023-04-25T07:54:55;8.00;;;5.40;;
15067;SDS011;7633;60.024;18.770;2023-04-25T07:57:20;6.10;;;5.00;;
15067;SDS011;7633;60.024;18.770;2023-04-25T07:59:45;8.33;;;5.17;;
15067;SDS011;7633;60.024;18.770;2023-04-25T08:02:11;7.77;;;5.43;;
15067;SDS011;7633;60.024;18.770;2023-04-25T08:04:36;4.90;;;4.40;;
15067;SDS011;7633;60.024;18.770;2023-04-25T08:07:01;6.67;;;4.33;;
15067;SDS011;7633;60.024;18.770;2023-04-25T08:09:27;9.10;;;4.47;;
15067;SDS011;7633;60.024;18.770;2023-04-25T08:11:52;5.83;;;4.93;;
15067;SDS011;7633;60.024;18.770;2023-04-25T08:14:18;7.37;;;5.00;;
15067;SDS011;7633;60.024;18.770;2023-04-25T08:16:43;7.23;;;4.30;;
15067;SDS011;7633;60.024;18.770;2023-04-25T08:19:09;5.73;;;4.33;;
15067;SDS011;7633;60.024;18.770;2023-04-25T08:21:36;5.13;;;4.40;;
15067;SDS011;7633;60.024;18.770;2023-04-25T08:24:01;4.30;;;3.53;;
15067;SDS011;7633;60.024;18.770;2023-04-25T08:26:26;4.80;;;4.30;;
15067;SDS011;7633;60.024;18.770;2023-04-25T08:28:52;4.63;;;3.87;;
15067;SDS011;7633;60.024;18.770;2023-04-25T08:31:17;5.00;;;3.70;;
15067;SDS011;7633;60.024;18.770;2023-04-25T08:33:42;4.57;;;4.10;;
15067;SDS011;7633;60.024;18.770;2023-04-25T08:36:08;4.50;;;3.80;;
15067;SDS011;7633;60.024;18.770;2023-04-25T08:38:34;4.80;;;3.67;;
15067;SDS011;7633;60.024;18.770;2023-04-25T08:40:59;5.50;;;3.90;;
15067;SDS011;7633;60.024;18.770;2023-04-25T08:43:26;3.80;;;3.40;;
15067;SDS011;7633;60.024;18.770;2023-04-25T08:45:52;3.93;;;3.60;;
15067;SDS011;7633;60.024;18.770;2023-04-25T08:48:19;3.83;;;3.10;;
15067;SDS011;7633;60.024;18.770;2023-04-25T08:50:51;3.17;;;2.80;;
15067;SDS011;7633;60.024;18.770;2023-04-25T08:53:22;3.50;;;3.20;;
15067;SDS011;7633;60.024;18.770;2023-04-25T08:55:50;3.27;;;2.97;;
15067;SDS011;7633;60.024;18.770;2023-04-25T08:58:15;3.30;;;3.00;;
15067;SDS011;7633;60.024;18.770;2023-04-25T09:00:41;2.83;;;2.60;;
15067;SDS011;7633;60.024;18.770;2023-04-25T09:03:07;2.80;;;2.50;;
15067;SDS011;7633;60.024;18.770;2023-04-25T09:05:32;2.70;;;2.50;;
15067;SDS011;7633;60.024;18.770;2023-04-25T09:07:58;2.33;;;2.13;;
15067;SDS011;7633;60.024;18.770;2023-04-25T09:10:23;2.57;;;2.30;;
15067;SDS011;7633;60.024;18.770;2023-04-25T09:13:07;2.87;;;2.63;;
15067;SDS011;7633;60.024;18.770;2023-04-25T09:15:50;3.33;;;2.47;;
15067;SDS011;7633;60.024;18.770;2023-04-25T09:18:23;3.20;;;2.90;;
15067;SDS011;7633;60.024;18.770;2023-04-25T09:20:51;3.03;;;2.80;;
15067;SDS011;7633;60.024;18.770;2023-04-25T09:23:16;2.20;;;2.00;;
15067;SDS011;7633;60.024;18.770;2023-04-25T09:25:44;3.80;;;3.40;;
15067;SDS011;7633;60.024;18.770;2023-04-25T09:28:12;2.60;;;2.40;;
15067;SDS011;7633;60.024;18.770;2023-04-25T09:30:37;2.40;;;2.20;;
15067;SDS011;7633;60.024;18.770;2023-04-25T09:33:06;3.57;;;3.10;;
15067;SDS011;7633;60.024;18.770;2023-04-25T09:35:42;2.00;;;1.80;;
15067;SDS011;7633;60.024;18.770;2023-04-25T09:38:08;2.40;;;2.20;;
15067;SDS011;7633;60.024;18.770;2023-04-25T09:40:33;2.60;;;2.40;;
15067;SDS011;7633;60.024;18.770;2023-04-25T09:42:59;2.83;;;2.60;;
15067;SDS011;7633;60.024;18.770;2023-04-25T09:45:25;6.63;;;4.23;;
15067;SDS011;7633;60.024;18.770;2023-04-25T09:47:52;5.57;;;5.07;;
15067;SDS011;7633;60.024;18.770;2023-04-25T09:50:20;4.17;;;3.80;;
15067;SDS011;7633;60.024;18.770;2023-04-25T09:52:48;3.90;;;3.60;;
15067;SDS011;7633;60.024;18.770;2023-04-25T09:55:27;3.20;;;2.90;;
15067;SDS011;7633;60.024;18.770;2023-04-25T09:57:52;3.27;;;2.97;;
15067;SDS011;7633;60.024;18.770;2023-04-25T10:00:18;2.30;;;2.10;;
15067;SDS011;7633;60.024;18.770;2023-04-25T10:02:45;0.90;;;0.90;;
15067;SDS011;7633;60.024;18.770;2023-04-25T10:05:12;2.13;;;1.93;;
15067;SDS011;7633;60.024;18.770;2023-04-25T10:07:37;1.87;;;1.77;;
15067;SDS011;7633;60.024;18.770;2023-04-25T10:10:04;2.17;;;1.97;;
15067;SDS011;7633;60.024;18.770;2023-04-25T10:12:30;2.47;;;2.27;;
15067;SDS011;7633;60.024;18.770;2023-04-25T10:14:59;2.60;;;2.30;;
15067;SDS011;7633;60.024;18.770;2023-04-25T10:17:28;2.63;;;2.30;;
15067;SDS011;7633;60.024;18.770;2023-04-25T10:19:54;2.40;;;2.20;;
15067;SDS011;7633;60.024;18.770;2023-04-25T10:24:45;2.30;;;2.10;;
15067;SDS011;7633;60.024;18.770;2023-04-25T10:27:11;2.00;;;1.57;;
15067;SDS011;7633;60.024;18.770;2023-04-25T10:29:37;1.33;;;1.23;;
15067;SDS011;7633;60.024;18.770;2023-04-25T10:32:03;0.80;;;0.70;;
15067;SDS011;7633;60.024;18.770;2023-04-25T10:34:41;2.30;;;1.70;;
15067;SDS011;7633;60.024;18.770;2023-04-25T10:37:10;1.40;;;1.17;;
15067;SDS011;7633;60.024;18.770;2023-04-25T10:39:36;1.23;;;0.70;;
15067;SDS011;7633;60.024;18.770;2023-04-25T10:42:02;1.67;;;1.57;;
15067;SDS011;7633;60.024;18.770;2023-04-25T10:44:28;0.83;;;0.60;;
15067;SDS011;7633;60.024;18.770;2023-04-25T10:46:54;1.30;;;1.20;;
15067;SDS011;7633;60.024;18.770;2023-04-25T10:49:33;1.40;;;1.30;;
15067;SDS011;7633;60.024;18.770;2023-04-25T10:54:45;0.83;;;0.70;;
15067;SDS011;7633;60.024;18.770;2023-04-25T10:59:59;0.80;;;0.80;;
15067;SDS011;7633;60.024;18.770;2023-04-25T11:02:28;0.70;;;0.70;;
15067;SDS011;7633;60.024;18.770;2023-04-25T11:04:54;6.33;;;1.40;;
15067;SDS011;7633;60.024;18.770;2023-04-25T11:07:25;1.43;;;1.33;;
15067;SDS011;7633;60.024;18.770;2023-04-25T11:09:51;1.10;;;1.03;;
15067;SDS011;7633;60.024;18.770;2023-04-25T11:12:16;1.10;;;1.00;;
15067;SDS011;7633;60.024;18.770;2023-04-25T11:14:42;1.40;;;1.30;;
15067;SDS011;7633;60.024;18.770;2023-04-25T11:17:08;1.07;;;1.07;;
15067;SDS011;7633;60.024;18.770;2023-04-25T11:19:33;1.07;;;1.00;;
15067;SDS011;7633;60.024;18.770;2023-04-25T11:21:59;1.17;;;1.07;;
15067;SDS011;7633;60.024;18.770;2023-04-25T11:24:27;1.17;;;1.07;;
15067;SDS011;7633;60.024;18.770;2023-04-25T11:26:53;1.23;;;1.13;;
15067;SDS011;7633;60.024;18.770;2023-04-25T11:29:21;1.00;;;0.90;;
15067;SDS011;7633;60.024;18.770;2023-04-25T11:31:46;1.20;;;1.10;;
15067;SDS011;7633;60.024;18.770;2023-04-25T11:34:16;1.20;;;1.03;;
15067;SDS011;7633;60.024;18.770;2023-04-25T11:36:41;1.30;;;1.20;;
15067;SDS011;7633;60.024;18.770;2023-04-25T11:39:06;0.80;;;0.80;;
15067;SDS011;7633;60.024;18.770;2023-04-25T11:41:32;0.90;;;0.70;;
15067;SDS011;7633;60.024;18.770;2023-04-25T11:43:57;1.10;;;1.00;;
15067;SDS011;7633;60.024;18.770;2023-04-25T11:46:23;1.20;;;1.10;;
15067;SDS011;7633;60.024;18.770;2023-04-25T11:48:48;1.00;;;0.90;;
15067;SDS011;7633;60.024;18.770;2023-04-25T11:51:15;1.00;;;1.00;;
15067;SDS011;7633;60.024;18.770;2023-04-25T11:53:41;0.80;;;0.80;;
15067;SDS011;7633;60.024;18.770;2023-04-25T11:56:10;1.00;;;1.00;;
15067;SDS011;7633;60.024;18.770;2023-04-25T12:01:29;1.53;;;1.20;;
15067;SDS011;7633;60.024;18.770;2023-04-25T12:03:57;1.63;;;0.83;;
15067;SDS011;7633;60.024;18.770;2023-04-25T12:06:29;1.27;;;0.90;;
15067;SDS011;7633;60.024;18.770;2023-04-25T12:08:58;1.50;;;0.87;;
15067;SDS011;7633;60.024;18.770;2023-04-25T12:11:24;1.03;;;0.70;;
15067;SDS011;7633;60.024;18.770;2023-04-25T12:13:51;1.03;;;0.90;;
15067;SDS011;7633;60.024;18.770;2023-04-25T12:16:17;1.77;;;1.57;;
15067;SDS011;7633;60.024;18.770;2023-04-25T12:18:42;1.70;;;1.60;;
15067;SDS011;7633;60.024;18.770;2023-04-25T12:21:08;0.40;;;0.40;;
15067;SDS011;7633;60.024;18.770;2023-04-25T12:23:34;1.20;;;1.10;;
15067;SDS011;7633;60.024;18.770;2023-04-25T12:26:03;0.93;;;0.90;;
15067;SDS011;7633;60.024;18.770;2023-04-25T12:28:28;1.30;;;1.20;;
15067;SDS011;7633;60.024;18.770;2023-04-25T12:31:01;1.10;;;1.00;;
15067;SDS011;7633;60.024;18.770;2023-04-25T12:35:56;1.70;;;0.90;;
15067;SDS011;7633;60.024;18.770;2023-04-25T12:40:47;1.50;;;1.40;;
15067;SDS011;7633;60.024;18.770;2023-04-25T12:43:13;1.50;;;1.40;;
15067;SDS011;7633;60.024;18.770;2023-04-25T12:45:38;1.47;;;1.37;;
15067;SDS011;7633;60.024;18.770;2023-04-25T12:48:04;1.17;;;1.07;;
15067;SDS011;7633;60.024;18.770;2023-04-25T12:50:29;0.80;;;0.80;;
15067;SDS011;7633;60.024;18.770;2023-04-25T12:52:54;1.50;;;1.40;;
15067;SDS011;7633;60.024;18.770;2023-04-25T12:55:20;1.57;;;1.40;;
15067;SDS011;7633;60.024;18.770;2023-04-25T12:57:46;1.63;;;1.40;;
15067;SDS011;7633;60.024;18.770;2023-04-25T13:00:11;1.70;;;1.30;;
15067;SDS011;7633;60.024;18.770;2023-04-25T13:02:39;1.60;;;1.50;;
15067;SDS011;7633;60.024;18.770;2023-04-25T13:05:05;1.83;;;1.60;;
15067;SDS011;7633;60.024;18.770;2023-04-25T13:07:30;1.70;;;1.53;;
15067;SDS011;7633;60.024;18.770;2023-04-25T13:09:56;1.57;;;1.47;;
15067;SDS011;7633;60.024;18.770;2023-04-25T13:12:21;1.77;;;1.67;;
15067;SDS011;7633;60.024;18.770;2023-04-25T13:14:47;1.83;;;1.73;;
15067;SDS011;7633;60.024;18.770;2023-04-25T13:17:12;1.40;;;1.30;;
15067;SDS011;7633;60.024;18.770;2023-04-25T13:19:37;1.60;;;1.30;;
15067;SDS011;7633;60.024;18.770;2023-04-25T13:22:03;1.60;;;1.50;;
15067;SDS011;7633;60.024;18.770;2023-04-25T13:24:29;1.40;;;1.30;;
15067;SDS011;7633;60.024;18.770;2023-04-25T13:26:55;1.80;;;1.40;;
15067;SDS011;7633;60.024;18.770;2023-04-25T13:29:20;1.97;;;1.40;;
15067;SDS011;7633;60.024;18.770;2023-04-25T13:31:45;1.67;;;1.57;;
15067;SDS011;7633;60.024;18.770;2023-04-25T13:34:11;1.60;;;1.50;;
15067;SDS011;7633;60.024;18.770;2023-04-25T13:36:37;1.43;;;1.33;;
15067;SDS011;7633;60.024;18.770;2023-04-25T13:39:03;1.70;;;1.60;;
15067;SDS011;7633;60.024;18.770;2023-04-25T13:41:29;1.50;;;1.40;;
15067;SDS011;7633;60.024;18.770;2023-04-25T13:43:55;1.50;;;1.40;;
15067;SDS011;7633;60.024;18.770;2023-04-25T13:46:20;1.70;;;1.43;;
15067;SDS011;7633;60.024;18.770;2023-04-25T13:48:45;1.83;;;1.60;;
15067;SDS011;7633;60.024;18.770;2023-04-25T13:51:14;1.50;;;1.40;;
15067;SDS011;7633;60.024;18.770;2023-04-25T13:53:39;1.80;;;1.70;;
15067;SDS011;7633;60.024;18.770;2023-04-25T13:56:05;1.87;;;1.67;;
15067;SDS011;7633;60.024;18.770;2023-04-25T13:58:31;1.70;;;1.60;;
15067;SDS011;7633;60.024;18.770;2023-04-25T14:00:59;1.73;;;1.63;;
15067;SDS011;7633;60.024;18.770;2023-04-25T14:03:25;1.57;;;1.10;;
15067;SDS011;7633;60.024;18.770;2023-04-25T14:05:50;1.50;;;1.40;;
15067;SDS011;7633;60.024;18.770;2023-04-25T14:08:16;1.60;;;1.37;;
15067;SDS011;7633;60.024;18.770;2023-04-25T14:10:41;1.97;;;1.60;;
15067;SDS011;7633;60.024;18.770;2023-04-25T14:13:06;1.93;;;1.33;;
15067;SDS011;7633;60.024;18.770;2023-04-25T14:15:32;1.50;;;1.40;;
15067;SDS011;7633;60.024;18.770;2023-04-25T14:17:58;1.50;;;1.40;;
15067;SDS011;7633;60.024;18.770;2023-04-25T14:20:23;1.60;;;1.50;;
15067;SDS011;7633;60.024;18.770;2023-04-25T14:22:49;1.60;;;1.50;;
15067;SDS011;7633;60.024;18.770;2023-04-25T14:25:14;1.40;;;1.30;;
15067;SDS011;7633;60.024;18.770;2023-04-25T14:27:40;1.53;;;1.43;;
15067;SDS011;7633;60.024;18.770;2023-04-25T14:30:05;1.40;;;1.30;;
15067;SDS011;7633;60.024;18.770;2023-04-25T14:32:32;1.50;;;1.40;;
15067;SDS011;7633;60.024;18.770;2023-04-25T14:34:57;1.70;;;1.50;;
15067;SDS011;7633;60.024;18.770;2023-04-25T14:37:22;1.73;;;1.63;;
15067;SDS011;7633;60.024;18.770;2023-04-25T14:39:48;1.53;;;1.43;;
15067;SDS011;7633;60.024;18.770;2023-04-25T14:42:13;1.93;;;1.20;;
15067;SDS011;7633;60.024;18.770;2023-04-25T14:44:38;1.60;;;1.50;;
15067;SDS011;7633;60.024;18.770;2023-04-25T14:47:04;2.10;;;1.87;;
15067;SDS011;7633;60.024;18.770;2023-04-25T14:49:29;2.50;;;1.57;;
15067;SDS011;7633;60.024;18.770;2023-04-25T14:51:54;2.00;;;1.67;;
15067;SDS011;7633;60.024;18.770;2023-04-25T14:54:20;1.53;;;1.43;;
15067;SDS011;7633;60.024;18.770;2023-04-25T14:56:46;2.10;;;1.77;;
15067;SDS011;7633;60.024;18.770;2023-04-25T14:59:11;1.70;;;1.60;;
15067;SDS011;7633;60.024;18.770;2023-04-25T15:01:37;1.77;;;1.30;;